createdAt,value
2022-11-28T00:02:00.798Z,49.13
2022-11-28T00:04:29.518Z,49.37
2022-11-28T00:06:59.027Z,53.80
2022-11-28T00:09:28.017Z,54.10
2022-11-28T00:11:56.911Z,53.43
2022-11-28T00:14:26.823Z,51.07
2022-11-28T00:16:55.442Z,55.90
2022-11-28T00:19:23.868Z,51.93
2022-11-28T00:21:52.441Z,55.97
2022-11-28T00:24:20.841Z,56.47
2022-11-28T00:26:49.629Z,57.20
2022-11-28T00:29:17.983Z,57.87
2022-11-28T00:31:47.703Z,53.23
2022-11-28T00:34:17.488Z,62.17
2022-11-28T00:36:49.041Z,55.70
2022-11-28T00:39:18.796Z,57.30
2022-11-28T00:41:47.278Z,56.00
2022-11-28T00:44:16.686Z,49.90
2022-11-28T00:46:47.101Z,54.53
2022-11-28T00:49:15.517Z,54.93
2022-11-28T00:51:44.327Z,50.67
2022-11-28T00:54:12.696Z,53.63
2022-11-28T00:56:42.479Z,46.93
2022-11-28T00:59:11.320Z,50.30
2022-11-28T01:01:42.376Z,49.90
2022-11-28T01:04:16.113Z,48.27
2022-11-28T01:06:48.188Z,48.10
2022-11-28T01:09:19.937Z,49.93
2022-11-28T01:11:50.778Z,45.37
2022-11-28T01:14:22.284Z,45.27
2022-11-28T01:16:50.829Z,45.50
2022-11-28T01:19:21.294Z,47.37
2022-11-28T01:21:49.975Z,45.53
2022-11-28T01:24:19.126Z,45.63
2022-11-28T01:26:47.602Z,49.30
2022-11-28T01:29:16.384Z,47.00
2022-11-28T01:31:44.843Z,44.93
2022-11-28T01:34:13.378Z,48.17
2022-11-28T01:36:43.274Z,46.97
2022-11-28T01:39:12.323Z,45.03
2022-11-28T01:41:40.879Z,45.27
2022-11-28T01:44:44.161Z,44.33
2022-11-28T01:47:12.795Z,42.60
2022-11-28T01:49:42.030Z,49.70
2022-11-28T01:52:18.062Z,47.60
2022-11-28T01:54:51.826Z,42.10
2022-11-28T01:57:24.042Z,43.03
2022-11-28T02:00:02.276Z,45.47
2022-11-28T02:02:46.960Z,44.07
2022-11-28T02:05:17.741Z,43.63
2022-11-28T02:07:49.179Z,41.30
2022-11-28T02:10:24.729Z,37.17
2022-11-28T02:13:30.850Z,40.87
2022-11-28T02:16:26.703Z,36.93
2022-11-28T02:19:20.229Z,37.33
2022-11-28T02:22:02.128Z,37.90
2022-11-28T02:25:04.657Z,35.43
2022-11-28T02:28:36.471Z,38.53
2022-11-28T02:31:28.740Z,38.80
2022-11-28T02:34:04.679Z,37.90
2022-11-28T02:36:40.599Z,40.33
2022-11-28T02:39:19.451Z,40.67
2022-11-28T02:41:57.656Z,40.63
2022-11-28T02:44:34.428Z,40.20
2022-11-28T02:47:09.873Z,40.60
2022-11-28T02:49:49.092Z,37.70
2022-11-28T02:52:23.187Z,41.97
2022-11-28T02:54:54.245Z,42.33
2022-11-28T02:57:22.861Z,37.57
2022-11-28T02:59:52.580Z,45.90
2022-11-28T03:02:29.167Z,39.70
2022-11-28T03:05:09.791Z,38.13
2022-11-28T03:08:01.881Z,42.00
2022-11-28T03:10:44.562Z,39.97
2022-11-28T03:13:27.775Z,42.93
2022-11-28T03:16:11.410Z,41.87
2022-11-28T03:18:46.812Z,39.40
2022-11-28T03:21:26.115Z,40.53
2022-11-28T03:24:02.083Z,40.70
2022-11-28T03:26:44.689Z,42.67
2022-11-28T03:29:21.973Z,37.23
2022-11-28T03:31:57.978Z,43.90
2022-11-28T03:34:33.883Z,41.70
2022-11-28T03:37:11.177Z,44.90
2022-11-28T03:39:52.980Z,42.00
2022-11-28T03:42:25.005Z,40.60
2022-11-28T03:45:02.575Z,39.47
2022-11-28T03:47:39.342Z,39.57
2022-11-28T03:50:15.219Z,41.33
2022-11-28T03:52:52.521Z,43.17
2022-11-28T03:55:29.605Z,42.77
2022-11-28T03:58:05.975Z,41.80
2022-11-28T04:00:39.742Z,39.13
2022-11-28T04:03:22.766Z,37.20
2022-11-28T04:05:59.978Z,43.10
2022-11-28T04:08:38.285Z,37.73
2022-11-28T04:11:14.733Z,36.60
2022-11-28T04:13:53.417Z,42.33
2022-11-28T04:16:30.959Z,39.80
2022-11-28T04:19:07.609Z,40.77
2022-11-28T04:21:46.617Z,39.60
2022-11-28T04:24:22.647Z,37.03
2022-11-28T04:26:59.630Z,38.47
2022-11-28T04:29:35.164Z,40.67
2022-11-28T04:32:05.491Z,40.73
2022-11-28T04:34:36.242Z,39.43
2022-11-28T04:37:09.879Z,38.63
2022-11-28T04:39:44.393Z,35.57
2022-11-28T04:42:18.509Z,40.07
2022-11-28T04:44:52.518Z,38.07
2022-11-28T04:47:21.239Z,35.90
2022-11-28T04:49:50.025Z,40.80
2022-11-28T04:52:30.304Z,36.27
2022-11-28T04:55:08.852Z,39.07
2022-11-28T04:57:41.938Z,34.63
2022-11-28T05:00:13.533Z,38.97
2022-11-28T05:02:44.590Z,33.97
2022-11-28T05:05:15.993Z,38.57
2022-11-28T05:07:44.658Z,38.23
2022-11-28T05:10:16.662Z,40.90
2022-11-28T05:12:45.588Z,41.13
2022-11-28T05:15:18.926Z,40.90
2022-11-28T05:17:47.814Z,40.37
2022-11-28T05:20:16.335Z,42.87
2022-11-28T05:22:45.004Z,36.87
2022-11-28T05:25:15.130Z,41.97
2022-11-28T05:27:43.666Z,40.87
2022-11-28T05:30:13.828Z,43.03
2022-11-28T05:32:42.235Z,45.63
2022-11-28T05:35:11.274Z,48.47
2022-11-28T05:37:40.214Z,41.83
2022-11-28T05:40:09.666Z,43.63
2022-11-28T05:42:39.435Z,44.57
2022-11-28T05:45:09.307Z,48.87
2022-11-28T05:47:38.011Z,47.07
2022-11-28T05:50:08.433Z,47.23
2022-11-28T05:52:36.802Z,46.27
2022-11-28T05:55:06.535Z,45.63
2022-11-28T05:57:35.216Z,46.10
2022-11-28T06:00:06.424Z,45.43
2022-11-28T06:02:39.963Z,44.30
2022-11-28T06:05:34.725Z,44.37
2022-11-28T06:07:57.877Z,38.27
2022-11-28T06:10:26.653Z,48.13
2022-11-28T06:12:55.013Z,38.53
2022-11-28T06:15:24.711Z,48.07
2022-11-28T06:17:53.542Z,43.87
2022-11-28T06:20:21.905Z,44.03
2022-11-28T06:22:50.384Z,43.80
2022-11-28T06:25:18.972Z,43.93
2022-11-28T06:27:47.647Z,44.93
2022-11-28T06:30:16.537Z,49.40
2022-11-28T06:32:46.210Z,44.37
2022-11-28T06:35:14.571Z,47.47
2022-11-28T06:37:42.935Z,42.83
2022-11-28T06:40:12.095Z,38.40
2022-11-28T06:42:40.413Z,43.20
2022-11-28T06:45:10.292Z,38.27
2022-11-28T06:47:38.651Z,37.93
2022-11-28T06:50:10.446Z,38.70
2022-11-28T06:52:38.769Z,36.63
2022-11-28T06:55:07.887Z,39.07
2022-11-28T06:57:36.933Z,36.40
2022-11-28T07:00:07.254Z,35.87
2022-11-28T07:02:35.817Z,37.30
2022-11-28T07:05:04.551Z,39.80
2022-11-28T07:07:45.661Z,37.87
2022-11-28T07:10:21.953Z,38.13
2022-11-28T07:12:55.660Z,36.53
2022-11-28T07:15:24.712Z,36.87
2022-11-28T07:17:53.770Z,37.60
2022-11-28T07:20:22.615Z,38.10
2022-11-28T07:22:52.232Z,38.83
2022-11-28T07:25:20.565Z,35.17
2022-11-28T07:27:48.896Z,38.87
2022-11-28T07:30:17.916Z,42.20
2022-11-28T07:32:46.208Z,39.70
2022-11-28T07:35:14.859Z,35.70
2022-11-28T07:37:43.232Z,35.60
2022-11-28T07:40:13.950Z,35.53
2022-11-28T07:42:42.725Z,32.13
2022-11-28T07:45:12.691Z,37.13
2022-11-28T07:47:41.358Z,28.20
2022-11-28T07:50:10.907Z,29.43
2022-11-28T07:52:39.779Z,29.20
2022-11-28T07:55:09.063Z,29.87
2022-11-28T07:57:39.243Z,34.60
2022-11-28T08:00:09.697Z,27.47
2022-11-28T08:02:41.015Z,33.40
2022-11-28T08:05:10.550Z,31.50
2022-11-28T08:07:39.319Z,30.10
2022-11-28T08:10:10.614Z,30.67
2022-11-28T08:12:40.349Z,33.63
2022-11-28T08:15:09.818Z,30.83
2022-11-28T08:17:38.438Z,36.03
2022-11-28T08:20:09.163Z,32.10
2022-11-28T08:22:37.510Z,30.57
2022-11-28T08:25:06.661Z,30.97
2022-11-28T08:27:35.294Z,32.87
2022-11-28T08:30:06.157Z,33.70
2022-11-28T08:32:34.863Z,35.13
2022-11-28T08:35:03.306Z,32.50
2022-11-28T08:37:31.894Z,32.17
2022-11-28T08:40:02.411Z,32.63
2022-11-28T08:42:31.022Z,33.47
2022-11-28T08:44:59.351Z,35.17
2022-11-28T08:47:29.273Z,31.80
2022-11-28T08:49:57.651Z,28.47
2022-11-28T08:52:26.555Z,34.57
2022-11-28T08:54:54.879Z,33.63
2022-11-28T08:57:23.229Z,32.63
2022-11-28T08:59:51.608Z,34.47
2022-11-28T09:02:24.610Z,32.67
2022-11-28T09:04:55.917Z,33.83
2022-11-28T09:07:24.524Z,30.13
2022-11-28T09:09:52.892Z,30.77
2022-11-28T09:12:21.240Z,33.40
2022-11-28T09:14:49.635Z,35.70
2022-11-28T09:17:18.428Z,29.63
2022-11-28T09:19:47.103Z,30.77
2022-11-28T09:22:16.806Z,29.57
2022-11-28T09:24:45.154Z,32.77
2022-11-28T09:27:13.457Z,32.40
2022-11-28T09:29:42.152Z,35.00
2022-11-28T09:32:10.713Z,34.40
2022-11-28T09:34:39.363Z,33.83
2022-11-28T09:37:07.769Z,31.27
2022-11-28T09:39:57.151Z,30.63
2022-11-28T09:42:36.136Z,30.47
2022-11-28T09:45:13.039Z,34.10
2022-11-28T09:47:45.980Z,29.23
2022-11-28T09:50:20.956Z,30.40
2022-11-28T09:53:00.662Z,30.03
2022-11-28T09:55:40.675Z,32.30
2022-11-28T09:58:20.400Z,30.00
2022-11-28T10:01:03.091Z,30.60
2022-11-28T10:03:43.307Z,32.37
2022-11-28T10:06:21.547Z,30.07
2022-11-28T10:09:26.718Z,31.30
2022-11-28T10:12:20.180Z,34.33
2022-11-28T10:15:11.711Z,33.47
2022-11-28T10:17:55.531Z,33.53
2022-11-28T10:20:27.039Z,31.20
2022-11-28T10:23:02.099Z,36.23
2022-11-28T10:25:36.147Z,35.70
2022-11-28T10:28:12.362Z,36.07
2022-11-28T10:30:48.892Z,34.43
2022-11-28T10:33:26.352Z,35.50
2022-11-28T10:36:00.169Z,35.37
2022-11-28T10:38:34.147Z,31.63
2022-11-28T10:41:13.554Z,38.23
2022-11-28T10:43:54.405Z,32.63
2022-11-28T10:46:59.753Z,32.97
2022-11-28T10:49:49.720Z,31.80
2022-11-28T10:52:27.701Z,28.60
2022-11-28T10:55:24.019Z,32.60
2022-11-28T10:58:09.079Z,33.60
2022-11-28T11:00:40.959Z,30.80
2022-11-28T11:03:17.491Z,29.67
2022-11-28T11:05:46.101Z,28.33
2022-11-28T11:08:21.936Z,29.33
2022-11-28T11:10:54.222Z,28.27
2022-11-28T11:13:27.241Z,29.03
2022-11-28T11:16:02.722Z,29.83
2022-11-28T11:18:34.572Z,29.33
2022-11-28T11:21:16.779Z,32.10
2022-11-28T11:23:46.309Z,28.27
2022-11-28T11:26:27.193Z,33.27
2022-11-28T11:28:57.584Z,32.80
2022-11-28T11:31:31.151Z,31.30
2022-11-28T11:34:05.675Z,28.20
2022-11-28T11:36:37.004Z,30.30
2022-11-28T11:39:20.626Z,31.30
2022-11-28T11:41:52.316Z,30.53
2022-11-28T11:44:34.399Z,30.57
2022-11-28T11:47:09.246Z,29.83
2022-11-28T11:49:40.146Z,30.20
2022-11-28T11:52:19.764Z,27.83
2022-11-28T11:55:03.307Z,31.30
2022-11-28T11:57:38.858Z,34.23
2022-11-28T12:00:16.364Z,29.93
2022-11-28T12:02:53.080Z,30.90
2022-11-28T12:05:27.635Z,29.73
2022-11-28T12:08:01.072Z,28.60
2022-11-28T12:10:35.481Z,27.77
2022-11-28T12:13:04.869Z,31.97
2022-11-28T12:15:46.780Z,32.27
2022-11-28T12:18:30.670Z,28.37
2022-11-28T12:21:13.882Z,29.40
2022-11-28T12:24:05.967Z,32.53
2022-11-28T12:26:45.499Z,29.27
2022-11-28T12:29:41.944Z,28.97
2022-11-28T12:32:29.999Z,31.40
2022-11-28T12:35:18.966Z,30.53
2022-11-28T12:38:12.172Z,30.13
2022-11-28T12:41:10.979Z,31.73
2022-11-28T12:44:00.350Z,30.03
2022-11-28T12:46:41.687Z,30.67
2022-11-28T12:49:20.863Z,26.33
2022-11-28T12:52:06.822Z,33.93
2022-11-28T12:54:59.446Z,29.17
2022-11-28T12:57:40.205Z,26.80
2022-11-28T13:00:19.668Z,28.50
2022-11-28T13:03:06.940Z,28.80
2022-11-28T13:05:57.660Z,26.40
2022-11-28T13:08:51.838Z,26.93
2022-11-28T13:11:40.123Z,28.00
2022-11-28T13:14:23.741Z,27.50
2022-11-28T13:16:54.739Z,29.10
2022-11-28T13:19:39.208Z,27.50
2022-11-28T13:22:16.928Z,27.33
2022-11-28T13:25:00.777Z,29.13
2022-11-28T13:27:39.892Z,27.23
2022-11-28T13:30:22.243Z,28.97
2022-11-28T13:33:02.542Z,31.47
2022-11-28T13:35:31.750Z,27.90
2022-11-28T13:41:06.267Z,37.13
2022-11-28T13:43:50.589Z,44.23
2022-11-28T13:46:19.924Z,32.53
2022-11-28T13:49:14.349Z,29.57
2022-11-28T13:51:43.475Z,28.47
2022-11-28T13:54:46.169Z,28.87
2022-11-28T13:57:29.174Z,33.53
2022-11-28T14:00:04.421Z,27.63
2022-11-28T14:02:46.508Z,29.90
2022-11-28T14:05:36.377Z,27.40
2022-11-28T14:08:29.038Z,31.33
2022-11-28T14:11:30.886Z,27.67
2022-11-28T14:14:32.445Z,27.27
2022-11-28T14:17:32.030Z,27.90
2022-11-28T14:20:24.280Z,30.13
2022-11-28T14:23:14.811Z,31.23
2022-11-28T14:25:48.277Z,27.80
2022-11-28T14:28:24.602Z,30.97
2022-11-28T14:31:06.088Z,31.87
2022-11-28T14:33:40.677Z,29.00
2022-11-28T14:36:34.832Z,32.87
2022-11-28T14:39:12.165Z,31.17
2022-11-28T14:45:46.572Z,28.83
2022-11-28T14:48:31.784Z,32.23
2022-11-28T14:51:02.109Z,33.50
2022-11-28T14:53:50.623Z,32.00
2022-11-28T14:56:29.589Z,33.47
2022-11-28T14:59:03.381Z,30.73
2022-11-28T15:01:45.135Z,33.00
2022-11-28T15:04:48.963Z,34.00
2022-11-28T15:07:45.459Z,30.43
2022-11-28T15:10:25.068Z,31.97
2022-11-28T15:13:16.583Z,33.80
2022-11-28T15:15:50.380Z,28.67
2022-11-28T15:18:22.433Z,29.70
2022-11-28T15:21:02.776Z,34.17
2022-11-28T15:23:34.174Z,32.37
2022-11-28T15:26:04.259Z,30.17
2022-11-28T15:28:36.034Z,29.30
2022-11-28T15:31:06.672Z,36.67
2022-11-28T15:33:35.462Z,30.47
2022-11-28T15:36:19.982Z,32.77
2022-11-28T15:38:48.405Z,29.37
2022-11-28T15:41:23.539Z,32.50
2022-11-28T15:43:54.045Z,29.83
2022-11-28T15:46:31.305Z,32.70
2022-11-28T15:49:01.464Z,34.53
2022-11-28T15:51:34.029Z,30.07
2022-11-28T15:54:25.784Z,35.23
2022-11-28T15:56:59.021Z,33.07
2022-11-28T15:59:29.208Z,31.93
2022-11-28T16:02:05.962Z,32.30
2022-11-28T16:04:34.804Z,34.30
2022-11-28T16:07:05.284Z,32.50
2022-11-28T16:09:36.804Z,32.43
2022-11-28T16:12:15.817Z,34.13
2022-11-28T16:14:46.995Z,36.90
2022-11-28T16:17:22.674Z,36.90
2022-11-28T16:19:57.821Z,39.33
2022-11-28T16:22:36.484Z,34.73
2022-11-28T16:25:23.657Z,35.27
2022-11-28T16:27:54.075Z,34.20
2022-11-28T16:30:38.247Z,35.53
2022-11-28T16:33:38.439Z,32.47
2022-11-28T16:36:19.290Z,34.90
2022-11-28T16:38:51.697Z,33.37
2022-11-28T16:41:25.229Z,33.90
2022-11-28T16:44:00.292Z,33.63
2022-11-28T16:46:37.218Z,34.80
2022-11-28T16:49:09.200Z,33.60
2022-11-28T16:51:41.099Z,33.63
2022-11-28T16:54:33.137Z,34.80
2022-11-28T16:57:14.734Z,32.97
2022-11-28T16:59:45.212Z,33.53
2022-11-28T17:02:17.225Z,32.63
2022-11-28T17:04:47.088Z,31.57
2022-11-28T17:07:19.474Z,32.17
2022-11-28T17:09:51.372Z,28.80
2022-11-28T17:12:28.641Z,34.07
2022-11-28T17:14:58.390Z,32.67
2022-11-28T17:17:28.374Z,29.50
2022-11-28T17:19:56.734Z,32.47
2022-11-28T17:22:38.887Z,32.03
2022-11-28T17:25:16.961Z,33.03
2022-11-28T17:27:45.535Z,30.20
2022-11-28T17:30:16.668Z,31.23
2022-11-28T17:32:45.037Z,31.50
2022-11-28T17:35:20.766Z,33.67
2022-11-28T17:37:49.152Z,28.33
2022-11-28T17:40:34.142Z,32.03
2022-11-28T17:43:03.474Z,31.43
2022-11-28T17:45:35.737Z,29.27
2022-11-28T17:48:04.596Z,37.20
2022-11-28T17:50:33.324Z,33.10
2022-11-28T17:53:01.944Z,30.67
2022-11-28T17:55:32.194Z,34.07
2022-11-28T17:58:00.567Z,30.90
2022-11-28T18:00:29.706Z,29.80
2022-11-28T18:02:59.590Z,29.97
2022-11-28T18:05:28.221Z,31.83
2022-11-28T18:07:56.640Z,30.43
2022-11-28T18:10:25.167Z,30.53
2022-11-28T18:12:56.292Z,27.87
2022-11-28T18:15:27.865Z,32.97
2022-11-28T18:17:56.996Z,30.07
2022-11-28T18:20:28.503Z,31.00
2022-11-28T18:22:57.097Z,31.77
2022-11-28T18:25:27.269Z,32.63
2022-11-28T18:27:57.318Z,31.77
2022-11-28T18:30:26.018Z,34.87
2022-11-28T18:32:54.560Z,33.23
2022-11-28T18:35:23.196Z,32.67
2022-11-28T18:37:52.083Z,33.47
2022-11-28T18:40:20.448Z,34.53
2022-11-28T18:42:49.599Z,34.83
2022-11-28T18:45:19.688Z,30.53
2022-11-28T18:47:48.250Z,29.77
2022-11-28T18:50:17.407Z,32.40
2022-11-28T18:52:46.081Z,34.40
2022-11-28T18:55:15.752Z,29.87
2022-11-28T18:57:44.570Z,35.50
2022-11-28T19:00:15.833Z,32.87
2022-11-28T19:02:45.876Z,34.27
2022-11-28T19:05:14.303Z,33.43
2022-11-28T19:07:43.367Z,36.40
2022-11-28T19:10:12.848Z,31.67
2022-11-28T19:12:41.768Z,35.13
2022-11-28T19:15:11.795Z,31.83
2022-11-28T19:17:40.588Z,34.80
2022-11-28T19:20:12.684Z,32.27
2022-11-28T19:22:41.381Z,35.20
2022-11-28T19:25:10.860Z,33.50
2022-11-28T19:27:39.647Z,31.37
2022-11-28T19:30:10.504Z,29.40
2022-11-28T19:32:39.117Z,33.30
2022-11-28T19:35:10.538Z,32.93
2022-11-28T19:37:41.490Z,36.83
2022-11-28T19:40:11.343Z,34.07
2022-11-28T19:42:40.041Z,36.17
2022-11-28T19:45:16.047Z,31.00
2022-11-28T19:47:46.534Z,30.93
2022-11-28T19:50:19.566Z,31.37
2022-11-28T19:52:48.301Z,34.20
2022-11-28T19:55:17.284Z,31.60
2022-11-28T19:57:46.342Z,33.33
2022-11-28T20:00:17.401Z,33.97
2022-11-28T20:02:50.304Z,33.13
2022-11-28T20:05:21.023Z,34.33
2022-11-28T20:08:00.890Z,33.57
2022-11-28T20:10:31.258Z,34.17
2022-11-28T20:13:00.443Z,32.07
2022-11-28T20:15:30.303Z,35.33
2022-11-28T20:17:59.373Z,31.30
2022-11-28T20:20:29.158Z,33.80
2022-11-28T20:22:59.166Z,36.70
2022-11-28T20:25:28.583Z,33.83
2022-11-28T20:27:56.995Z,31.13
2022-11-28T20:30:25.446Z,35.10
2022-11-28T20:32:55.442Z,31.77
2022-11-28T20:35:24.924Z,33.37
2022-11-28T20:37:55.000Z,33.67
2022-11-28T20:40:23.317Z,32.10
2022-11-28T20:42:51.693Z,36.67
2022-11-28T20:45:20.334Z,36.77
2022-11-28T20:47:50.118Z,30.80
2022-11-28T20:50:18.831Z,36.43
2022-11-28T20:52:47.221Z,36.67
2022-11-28T20:55:17.315Z,34.37
2022-11-28T20:57:45.726Z,34.80
2022-11-28T21:00:15.583Z,33.80
2022-11-28T21:02:46.435Z,37.07
2022-11-28T21:05:14.934Z,35.00
2022-11-28T21:07:43.279Z,33.30
2022-11-28T21:10:12.128Z,37.10
2022-11-28T21:12:41.875Z,33.97
2022-11-28T21:15:11.252Z,33.57
2022-11-28T21:17:39.713Z,35.30
2022-11-28T21:20:10.166Z,37.43
2022-11-28T21:22:38.487Z,36.73
2022-11-28T21:25:08.024Z,33.97
2022-11-28T21:27:36.961Z,35.07
2022-11-28T21:30:11.124Z,35.93
2022-11-28T21:32:39.971Z,32.80
2022-11-28T21:35:09.857Z,33.43
2022-11-28T21:37:38.381Z,35.13
2022-11-28T21:40:09.104Z,31.03
2022-11-28T21:42:37.839Z,32.47
2022-11-28T21:45:09.535Z,30.67
2022-11-28T21:47:38.228Z,36.57
2022-11-28T21:50:08.222Z,32.87
2022-11-28T21:52:37.035Z,29.87
2022-11-28T21:55:06.111Z,35.53
2022-11-28T21:57:35.041Z,35.77
2022-11-28T22:00:04.269Z,45.93
2022-11-28T22:02:34.234Z,44.63
2022-11-28T22:05:03.267Z,34.80
2022-11-28T22:07:31.577Z,33.87
2022-11-28T22:09:59.948Z,37.70
2022-11-28T22:12:28.370Z,39.60
2022-11-28T22:14:56.756Z,34.40
2022-11-28T22:17:25.542Z,35.03
2022-11-28T22:19:55.855Z,35.67
2022-11-28T22:22:27.317Z,37.23
2022-11-28T22:24:55.991Z,32.67
2022-11-28T22:27:24.577Z,35.00
2022-11-28T22:29:53.092Z,37.03
2022-11-28T22:32:21.421Z,32.83
2022-11-28T22:34:51.129Z,36.50
2022-11-28T22:37:20.829Z,34.90
2022-11-28T22:39:51.299Z,35.37
2022-11-28T22:42:20.660Z,36.30
2022-11-28T22:44:49.419Z,34.63
2022-11-28T22:47:17.812Z,33.13
2022-11-28T22:49:46.490Z,37.13
2022-11-28T22:52:15.837Z,34.20
2022-11-28T22:54:46.133Z,36.27
2022-11-28T22:57:15.114Z,35.40
2022-11-28T22:59:43.608Z,36.77
2022-11-28T23:02:12.480Z,36.63
2022-11-28T23:04:41.401Z,33.83
2022-11-28T23:07:10.014Z,36.53
2022-11-28T23:09:39.402Z,36.40
2022-11-28T23:12:09.809Z,34.80
2022-11-28T23:14:38.613Z,35.53
2022-11-28T23:17:07.213Z,34.50
2022-11-28T23:19:35.802Z,38.67
2022-11-28T23:22:04.704Z,35.50
2022-11-28T23:24:34.496Z,36.27
2022-11-28T23:27:03.015Z,34.90
2022-11-28T23:29:32.949Z,38.27
2022-11-28T23:32:01.362Z,35.97
2022-11-28T23:34:31.430Z,32.10
2022-11-28T23:37:01.136Z,35.03
2022-11-28T23:39:30.167Z,37.53
2022-11-28T23:42:05.745Z,35.63
2022-11-28T23:44:35.678Z,40.10
2022-11-28T23:47:04.093Z,34.67
2022-11-28T23:49:32.763Z,33.13
2022-11-28T23:52:01.113Z,38.37
2022-11-28T23:54:29.417Z,39.23
2022-11-28T23:56:57.735Z,35.27
2022-11-28T23:59:26.406Z,36.80
